sensor_id;sensor_type;location;lat;lon;timestamp;temperature;humidity
49855;DHT22;35752;52.164;21.244;2023-03-31T00:01:15;9.60;99.90
49855;DHT22;35752;52.164;21.244;2023-03-31T00:03:41;9.60;99.90
49855;DHT22;35752;52.164;21.244;2023-03-31T00:06:09;9.60;99.90
49855;DHT22;35752;52.164;21.244;2023-03-31T00:08:35;9.60;99.90
49855;DHT22;35752;52.164;21.244;2023-03-31T00:11:03;9.60;99.90
49855;DHT22;35752;52.164;21.244;2023-03-31T00:13:30;9.60;99.90
49855;DHT22;35752;52.164;21.244;2023-03-31T00:16:08;9.70;99.90
49855;DHT22;35752;52.164;21.244;2023-03-31T00:18:34;9.60;99.90
49855;DHT22;35752;52.164;21.244;2023-03-31T00:21:12;9.60;99.90
49855;DHT22;35752;52.164;21.244;2023-03-31T00:23:39;9.60;99.90
49855;DHT22;35752;52.164;21.244;2023-03-31T00:26:06;9.60;99.90
49855;DHT22;35752;52.164;21.244;2023-03-31T00:28:31;9.60;99.90
49855;DHT22;35752;52.164;21.244;2023-03-31T00:31:03;9.60;99.90
49855;DHT22;35752;52.164;21.244;2023-03-31T00:33:29;9.70;99.90
49855;DHT22;35752;52.164;21.244;2023-03-31T00:35:55;9.70;99.90
49855;DHT22;35752;52.164;21.244;2023-03-31T00:38:21;9.70;99.90
49855;DHT22;35752;52.164;21.244;2023-03-31T00:40:47;9.70;99.90
49855;DHT22;35752;52.164;21.244;2023-03-31T00:43:34;9.70;99.90
49855;DHT22;35752;52.164;21.244;2023-03-31T00:46:15;9.70;99.90
49855;DHT22;35752;52.164;21.244;2023-03-31T00:48:50;9.70;99.90
49855;DHT22;35752;52.164;21.244;2023-03-31T00:51:17;9.80;99.90
49855;DHT22;35752;52.164;21.244;2023-03-31T00:53:50;9.70;99.90
49855;DHT22;35752;52.164;21.244;2023-03-31T00:56:20;9.80;99.90
49855;DHT22;35752;52.164;21.244;2023-03-31T00:58:46;9.80;99.90
49855;DHT22;35752;52.164;21.244;2023-03-31T01:01:18;9.80;99.90
49855;DHT22;35752;52.164;21.244;2023-03-31T01:03:44;9.80;99.90
49855;DHT22;35752;52.164;21.244;2023-03-31T01:06:12;9.80;99.90
49855;DHT22;35752;52.164;21.244;2023-03-31T01:08:39;9.80;99.90
49855;DHT22;35752;52.164;21.244;2023-03-31T01:11:08;9.80;99.90
49855;DHT22;35752;52.164;21.244;2023-03-31T01:13:36;9.80;99.90
49855;DHT22;35752;52.164;21.244;2023-03-31T01:16:02;9.80;99.90
49855;DHT22;35752;52.164;21.244;2023-03-31T01:18:28;9.80;99.90
49855;DHT22;35752;52.164;21.244;2023-03-31T01:35:20;9.90;99.90
49855;DHT22;35752;52.164;21.244;2023-03-31T01:46:52;9.90;99.90
49855;DHT22;35752;52.164;21.244;2023-03-31T01:51:48;9.80;99.90
49855;DHT22;35752;52.164;21.244;2023-03-31T01:54:31;9.80;99.90
49855;DHT22;35752;52.164;21.244;2023-03-31T02:00:20;9.90;99.90
49855;DHT22;35752;52.164;21.244;2023-03-31T02:02:31;9.90;99.90
49855;DHT22;35752;52.164;21.244;2023-03-31T02:05:14;9.90;99.90
49855;DHT22;35752;52.164;21.244;2023-03-31T02:08:04;9.90;99.90
49855;DHT22;35752;52.164;21.244;2023-03-31T02:10:32;9.80;99.90
49855;DHT22;35752;52.164;21.244;2023-03-31T02:13:00;9.80;99.90
49855;DHT22;35752;52.164;21.244;2023-03-31T02:15:33;9.80;99.90
49855;DHT22;35752;52.164;21.244;2023-03-31T02:18:02;9.80;99.90
49855;DHT22;35752;52.164;21.244;2023-03-31T02:20:31;9.80;99.90
49855;DHT22;35752;52.164;21.244;2023-03-31T02:22:58;9.80;99.90
49855;DHT22;35752;52.164;21.244;2023-03-31T02:25:31;9.90;99.90
49855;DHT22;35752;52.164;21.244;2023-03-31T02:28:03;9.80;99.90
49855;DHT22;35752;52.164;21.244;2023-03-31T02:30:37;9.90;99.90
49855;DHT22;35752;52.164;21.244;2023-03-31T02:33:07;9.80;99.90
49855;DHT22;35752;52.164;21.244;2023-03-31T02:35:33;9.80;99.90
49855;DHT22;35752;52.164;21.244;2023-03-31T02:38:01;9.70;99.90
49855;DHT22;35752;52.164;21.244;2023-03-31T02:40:27;9.70;99.90
49855;DHT22;35752;52.164;21.244;2023-03-31T02:42:52;9.70;99.90
49855;DHT22;35752;52.164;21.244;2023-03-31T02:53:30;9.80;99.90
49855;DHT22;35752;52.164;21.244;2023-03-31T02:59:19;9.80;99.90
49855;DHT22;35752;52.164;21.244;2023-03-31T03:04:58;9.80;99.90
49855;DHT22;35752;52.164;21.244;2023-03-31T03:10:09;9.80;99.90
49855;DHT22;35752;52.164;21.244;2023-03-31T03:13:01;9.70;99.90
49855;DHT22;35752;52.164;21.244;2023-03-31T03:15:39;9.80;99.90
49855;DHT22;35752;52.164;21.244;2023-03-31T03:18:05;9.70;99.90
49855;DHT22;35752;52.164;21.244;2023-03-31T03:20:31;9.70;99.90
49855;DHT22;35752;52.164;21.244;2023-03-31T03:23:00;9.60;99.90
49855;DHT22;35752;52.164;21.244;2023-03-31T03:25:26;9.60;99.90
49855;DHT22;35752;52.164;21.244;2023-03-31T03:27:51;9.60;99.90
49855;DHT22;35752;52.164;21.244;2023-03-31T03:30:18;9.70;99.90
49855;DHT22;35752;52.164;21.244;2023-03-31T03:32:43;9.70;99.90
49855;DHT22;35752;52.164;21.244;2023-03-31T03:35:10;9.70;99.90
49855;DHT22;35752;52.164;21.244;2023-03-31T03:37:36;9.70;99.90
49855;DHT22;35752;52.164;21.244;2023-03-31T03:40:02;9.70;99.90
49855;DHT22;35752;52.164;21.244;2023-03-31T03:42:30;9.60;99.90
49855;DHT22;35752;52.164;21.244;2023-03-31T03:44:56;9.70;99.90
49855;DHT22;35752;52.164;21.244;2023-03-31T03:47:21;9.60;99.90
49855;DHT22;35752;52.164;21.244;2023-03-31T03:49:47;9.70;99.90
49855;DHT22;35752;52.164;21.244;2023-03-31T03:52:14;9.70;99.90
49855;DHT22;35752;52.164;21.244;2023-03-31T03:54:39;9.60;99.90
49855;DHT22;35752;52.164;21.244;2023-03-31T03:57:05;9.70;99.90
49855;DHT22;35752;52.164;21.244;2023-03-31T03:59:31;9.60;99.90
49855;DHT22;35752;52.164;21.244;2023-03-31T04:01:57;9.60;99.90
49855;DHT22;35752;52.164;21.244;2023-03-31T04:04:23;9.60;99.90
49855;DHT22;35752;52.164;21.244;2023-03-31T04:06:49;9.60;99.90
49855;DHT22;35752;52.164;21.244;2023-03-31T04:09:15;9.60;99.90
49855;DHT22;35752;52.164;21.244;2023-03-31T04:11:40;9.50;99.90
49855;DHT22;35752;52.164;21.244;2023-03-31T04:14:06;9.60;99.90
49855;DHT22;35752;52.164;21.244;2023-03-31T04:16:31;9.50;99.90
49855;DHT22;35752;52.164;21.244;2023-03-31T04:18:58;9.40;99.90
49855;DHT22;35752;52.164;21.244;2023-03-31T04:21:28;9.40;99.90
49855;DHT22;35752;52.164;21.244;2023-03-31T04:23:55;9.50;99.90
49855;DHT22;35752;52.164;21.244;2023-03-31T04:26:28;9.30;99.90
49855;DHT22;35752;52.164;21.244;2023-03-31T04:29:04;9.40;99.90
49855;DHT22;35752;52.164;21.244;2023-03-31T04:31:30;9.40;99.90
49855;DHT22;35752;52.164;21.244;2023-03-31T04:33:56;9.30;99.90
49855;DHT22;35752;52.164;21.244;2023-03-31T04:36:27;9.30;99.90
49855;DHT22;35752;52.164;21.244;2023-03-31T04:38:53;9.30;99.90
49855;DHT22;35752;52.164;21.244;2023-03-31T04:41:20;9.20;99.90
49855;DHT22;35752;52.164;21.244;2023-03-31T04:43:45;9.10;99.90
49855;DHT22;35752;52.164;21.244;2023-03-31T04:46:11;9.10;99.90
49855;DHT22;35752;52.164;21.244;2023-03-31T04:48:37;9.10;99.90
49855;DHT22;35752;52.164;21.244;2023-03-31T04:51:03;9.10;99.90
49855;DHT22;35752;52.164;21.244;2023-03-31T04:53:29;9.20;99.90
49855;DHT22;35752;52.164;21.244;2023-03-31T04:55:56;9.20;99.90
49855;DHT22;35752;52.164;21.244;2023-03-31T04:58:22;9.20;99.90
49855;DHT22;35752;52.164;21.244;2023-03-31T05:00:47;9.20;99.90
49855;DHT22;35752;52.164;21.244;2023-03-31T05:03:13;9.20;99.90
49855;DHT22;35752;52.164;21.244;2023-03-31T05:05:39;9.20;99.90
49855;DHT22;35752;52.164;21.244;2023-03-31T05:08:04;9.10;99.90
49855;DHT22;35752;52.164;21.244;2023-03-31T05:10:30;9.10;99.90
49855;DHT22;35752;52.164;21.244;2023-03-31T05:12:56;9.10;99.90
49855;DHT22;35752;52.164;21.244;2023-03-31T05:15:22;9.20;99.90
49855;DHT22;35752;52.164;21.244;2023-03-31T05:17:49;9.20;99.90
49855;DHT22;35752;52.164;21.244;2023-03-31T05:20:17;9.20;99.90
49855;DHT22;35752;52.164;21.244;2023-03-31T05:22:44;9.40;99.90
49855;DHT22;35752;52.164;21.244;2023-03-31T05:25:10;9.50;99.90
49855;DHT22;35752;52.164;21.244;2023-03-31T05:27:38;9.60;99.90
49855;DHT22;35752;52.164;21.244;2023-03-31T05:30:05;9.70;99.90
49855;DHT22;35752;52.164;21.244;2023-03-31T05:32:30;9.70;99.90
49855;DHT22;35752;52.164;21.244;2023-03-31T05:34:56;9.70;99.90
49855;DHT22;35752;52.164;21.244;2023-03-31T05:37:25;9.80;99.90
49855;DHT22;35752;52.164;21.244;2023-03-31T05:39:52;9.90;99.90
49855;DHT22;35752;52.164;21.244;2023-03-31T05:42:18;9.90;99.90
49855;DHT22;35752;52.164;21.244;2023-03-31T05:44:44;9.90;99.90
49855;DHT22;35752;52.164;21.244;2023-03-31T05:47:10;10.00;99.90
49855;DHT22;35752;52.164;21.244;2023-03-31T05:49:36;10.00;99.90
49855;DHT22;35752;52.164;21.244;2023-03-31T05:52:03;10.10;99.90
49855;DHT22;35752;52.164;21.244;2023-03-31T05:54:29;10.10;99.90
49855;DHT22;35752;52.164;21.244;2023-03-31T05:56:54;10.20;99.90
49855;DHT22;35752;52.164;21.244;2023-03-31T05:59:20;10.20;99.90
49855;DHT22;35752;52.164;21.244;2023-03-31T06:01:46;10.20;99.90
49855;DHT22;35752;52.164;21.244;2023-03-31T06:04:12;10.10;99.90
49855;DHT22;35752;52.164;21.244;2023-03-31T06:06:37;10.10;99.90
49855;DHT22;35752;52.164;21.244;2023-03-31T06:09:04;10.20;99.90
49855;DHT22;35752;52.164;21.244;2023-03-31T06:11:30;10.40;99.90
49855;DHT22;35752;52.164;21.244;2023-03-31T06:13:56;10.50;99.90
49855;DHT22;35752;52.164;21.244;2023-03-31T06:16:22;10.40;99.90
49855;DHT22;35752;52.164;21.244;2023-03-31T06:18:47;10.50;99.90
49855;DHT22;35752;52.164;21.244;2023-03-31T06:21:16;10.50;99.90
49855;DHT22;35752;52.164;21.244;2023-03-31T06:23:42;10.50;99.90
49855;DHT22;35752;52.164;21.244;2023-03-31T06:26:16;10.60;99.90
49855;DHT22;35752;52.164;21.244;2023-03-31T06:28:42;10.60;99.90
49855;DHT22;35752;52.164;21.244;2023-03-31T06:31:14;10.60;99.90
49855;DHT22;35752;52.164;21.244;2023-03-31T06:33:40;10.60;99.90
49855;DHT22;35752;52.164;21.244;2023-03-31T06:36:07;10.60;99.90
49855;DHT22;35752;52.164;21.244;2023-03-31T06:38:34;10.60;99.90
49855;DHT22;35752;52.164;21.244;2023-03-31T06:41:00;10.60;99.90
49855;DHT22;35752;52.164;21.244;2023-03-31T06:43:26;10.60;99.90
49855;DHT22;35752;52.164;21.244;2023-03-31T06:45:52;10.60;99.90
49855;DHT22;35752;52.164;21.244;2023-03-31T06:48:18;10.60;99.90
49855;DHT22;35752;52.164;21.244;2023-03-31T06:50:44;10.70;99.90
49855;DHT22;35752;52.164;21.244;2023-03-31T06:53:09;10.70;99.90
49855;DHT22;35752;52.164;21.244;2023-03-31T06:55:36;10.90;99.90
49855;DHT22;35752;52.164;21.244;2023-03-31T06:58:03;11.00;99.90
49855;DHT22;35752;52.164;21.244;2023-03-31T07:00:29;11.20;99.90
49855;DHT22;35752;52.164;21.244;2023-03-31T07:02:54;11.30;99.90
49855;DHT22;35752;52.164;21.244;2023-03-31T07:05:21;11.30;99.90
49855;DHT22;35752;52.164;21.244;2023-03-31T07:07:54;11.30;99.90
49855;DHT22;35752;52.164;21.244;2023-03-31T07:10:20;11.30;99.90
49855;DHT22;35752;52.164;21.244;2023-03-31T07:12:46;11.40;99.90
49855;DHT22;35752;52.164;21.244;2023-03-31T07:15:11;11.40;99.90
49855;DHT22;35752;52.164;21.244;2023-03-31T07:17:37;11.50;99.90
49855;DHT22;35752;52.164;21.244;2023-03-31T07:20:07;11.60;99.90
49855;DHT22;35752;52.164;21.244;2023-03-31T07:22:37;11.70;99.90
49855;DHT22;35752;52.164;21.244;2023-03-31T07:25:03;11.80;99.90
49855;DHT22;35752;52.164;21.244;2023-03-31T07:27:28;11.70;99.90
49855;DHT22;35752;52.164;21.244;2023-03-31T07:29:54;11.60;99.90
49855;DHT22;35752;52.164;21.244;2023-03-31T07:32:20;11.70;99.90
49855;DHT22;35752;52.164;21.244;2023-03-31T07:34:47;11.80;99.90
49855;DHT22;35752;52.164;21.244;2023-03-31T07:37:13;11.90;99.90
49855;DHT22;35752;52.164;21.244;2023-03-31T07:39:39;12.00;99.90
49855;DHT22;35752;52.164;21.244;2023-03-31T07:42:04;12.00;99.90
49855;DHT22;35752;52.164;21.244;2023-03-31T07:44:35;12.20;99.90
49855;DHT22;35752;52.164;21.244;2023-03-31T07:47:02;12.20;99.90
49855;DHT22;35752;52.164;21.244;2023-03-31T07:49:31;12.40;99.90
49855;DHT22;35752;52.164;21.244;2023-03-31T07:51:57;12.40;99.90
49855;DHT22;35752;52.164;21.244;2023-03-31T07:54:22;12.60;99.90
49855;DHT22;35752;52.164;21.244;2023-03-31T07:56:48;12.40;99.90
49855;DHT22;35752;52.164;21.244;2023-03-31T07:59:13;12.30;99.90
49855;DHT22;35752;52.164;21.244;2023-03-31T08:01:39;12.50;99.90
49855;DHT22;35752;52.164;21.244;2023-03-31T08:04:05;12.70;99.90
49855;DHT22;35752;52.164;21.244;2023-03-31T08:06:31;12.70;99.90
49855;DHT22;35752;52.164;21.244;2023-03-31T08:08:57;12.70;99.90
49855;DHT22;35752;52.164;21.244;2023-03-31T08:11:24;12.80;99.90
49855;DHT22;35752;52.164;21.244;2023-03-31T08:13:50;12.70;99.90
49855;DHT22;35752;52.164;21.244;2023-03-31T08:16:16;12.80;99.90
49855;DHT22;35752;52.164;21.244;2023-03-31T08:18:42;12.80;99.90
49855;DHT22;35752;52.164;21.244;2023-03-31T08:21:08;12.90;99.90
49855;DHT22;35752;52.164;21.244;2023-03-31T08:23:35;13.00;99.90
49855;DHT22;35752;52.164;21.244;2023-03-31T08:28:33;13.00;99.90
49855;DHT22;35752;52.164;21.244;2023-03-31T08:31:06;13.10;99.90
49855;DHT22;35752;52.164;21.244;2023-03-31T08:33:33;13.00;99.90
49855;DHT22;35752;52.164;21.244;2023-03-31T08:36:03;13.10;99.90
49855;DHT22;35752;52.164;21.244;2023-03-31T08:38:29;13.20;99.90
49855;DHT22;35752;52.164;21.244;2023-03-31T08:41:02;13.10;99.90
49855;DHT22;35752;52.164;21.244;2023-03-31T08:43:32;13.10;99.90
49855;DHT22;35752;52.164;21.244;2023-03-31T08:46:00;13.10;99.90
49855;DHT22;35752;52.164;21.244;2023-03-31T08:48:35;13.10;99.90
49855;DHT22;35752;52.164;21.244;2023-03-31T08:51:15;12.90;99.90
49855;DHT22;35752;52.164;21.244;2023-03-31T08:54:06;12.80;99.90
49855;DHT22;35752;52.164;21.244;2023-03-31T08:56:39;12.90;99.90
49855;DHT22;35752;52.164;21.244;2023-03-31T08:59:18;12.90;99.90
49855;DHT22;35752;52.164;21.244;2023-03-31T09:07:12;13.00;99.90
49855;DHT22;35752;52.164;21.244;2023-03-31T09:09:53;13.20;99.90
49855;DHT22;35752;52.164;21.244;2023-03-31T09:12:37;13.30;99.90
49855;DHT22;35752;52.164;21.244;2023-03-31T09:17:49;13.40;99.90
49855;DHT22;35752;52.164;21.244;2023-03-31T09:20:27;13.60;99.90
49855;DHT22;35752;52.164;21.244;2023-03-31T09:23:11;13.80;99.90
49855;DHT22;35752;52.164;21.244;2023-03-31T09:25:38;14.00;99.90
49855;DHT22;35752;52.164;21.244;2023-03-31T09:28:13;14.10;99.90
49855;DHT22;35752;52.164;21.244;2023-03-31T09:30:43;14.20;99.90
49855;DHT22;35752;52.164;21.244;2023-03-31T09:33:26;14.20;99.90
49855;DHT22;35752;52.164;21.244;2023-03-31T09:35:59;14.20;99.90
49855;DHT22;35752;52.164;21.244;2023-03-31T09:38:25;14.10;99.90
49855;DHT22;35752;52.164;21.244;2023-03-31T09:40:55;14.00;99.90
49855;DHT22;35752;52.164;21.244;2023-03-31T09:43:26;14.30;99.90
49855;DHT22;35752;52.164;21.244;2023-03-31T09:45:53;14.10;99.90
49855;DHT22;35752;52.164;21.244;2023-03-31T09:48:26;14.20;99.90
49855;DHT22;35752;52.164;21.244;2023-03-31T09:51:05;14.30;99.90
49855;DHT22;35752;52.164;21.244;2023-03-31T09:53:32;14.40;99.90
49855;DHT22;35752;52.164;21.244;2023-03-31T09:56:04;14.50;99.90
49855;DHT22;35752;52.164;21.244;2023-03-31T09:58:30;14.50;99.90
49855;DHT22;35752;52.164;21.244;2023-03-31T10:01:02;14.50;99.90
49855;DHT22;35752;52.164;21.244;2023-03-31T10:03:29;14.60;99.90
49855;DHT22;35752;52.164;21.244;2023-03-31T10:06:01;14.50;99.90
49855;DHT22;35752;52.164;21.244;2023-03-31T10:11:12;14.60;99.90
49855;DHT22;35752;52.164;21.244;2023-03-31T10:13:49;14.70;99.90
49855;DHT22;35752;52.164;21.244;2023-03-31T10:19:25;15.00;99.90
49855;DHT22;35752;52.164;21.244;2023-03-31T10:22:17;15.20;99.90
49855;DHT22;35752;52.164;21.244;2023-03-31T10:24:51;15.10;99.90
49855;DHT22;35752;52.164;21.244;2023-03-31T10:29:42;15.10;99.90
49855;DHT22;35752;52.164;21.244;2023-03-31T10:32:22;15.20;99.90
49855;DHT22;35752;52.164;21.244;2023-03-31T10:34:49;15.40;99.90
49855;DHT22;35752;52.164;21.244;2023-03-31T10:37:21;15.30;99.90
49855;DHT22;35752;52.164;21.244;2023-03-31T10:39:55;15.30;99.90
49855;DHT22;35752;52.164;21.244;2023-03-31T10:42:21;15.30;99.90
49855;DHT22;35752;52.164;21.244;2023-03-31T10:44:48;15.30;99.90
49855;DHT22;35752;52.164;21.244;2023-03-31T10:47:17;15.20;99.90
49855;DHT22;35752;52.164;21.244;2023-03-31T10:49:44;15.30;99.90
49855;DHT22;35752;52.164;21.244;2023-03-31T10:52:24;15.00;99.90
49855;DHT22;35752;52.164;21.244;2023-03-31T10:54:57;14.80;99.90
49855;DHT22;35752;52.164;21.244;2023-03-31T10:57:52;14.80;99.90
49855;DHT22;35752;52.164;21.244;2023-03-31T11:05:48;15.10;99.90
49855;DHT22;35752;52.164;21.244;2023-03-31T11:14:24;15.40;99.90
49855;DHT22;35752;52.164;21.244;2023-03-31T11:30:12;15.40;99.90
49855;DHT22;35752;52.164;21.244;2023-03-31T11:35:54;15.40;99.90
49855;DHT22;35752;52.164;21.244;2023-03-31T11:43:34;15.90;99.90
49855;DHT22;35752;52.164;21.244;2023-03-31T11:46:07;15.90;99.90
49855;DHT22;35752;52.164;21.244;2023-03-31T11:48:46;15.90;99.90
49855;DHT22;35752;52.164;21.244;2023-03-31T11:51:28;15.90;99.90
49855;DHT22;35752;52.164;21.244;2023-03-31T11:53:57;16.00;99.90
49855;DHT22;35752;52.164;21.244;2023-03-31T11:56:37;16.20;99.90
49855;DHT22;35752;52.164;21.244;2023-03-31T11:59:06;16.30;99.90
49855;DHT22;35752;52.164;21.244;2023-03-31T12:02:29;16.30;99.90
49855;DHT22;35752;52.164;21.244;2023-03-31T12:04:37;16.50;99.90
49855;DHT22;35752;52.164;21.244;2023-03-31T12:10:03;16.70;98.90
49855;DHT22;35752;52.164;21.244;2023-03-31T12:12:41;16.70;98.50
49855;DHT22;35752;52.164;21.244;2023-03-31T12:15:18;16.70;98.10
49855;DHT22;35752;52.164;21.244;2023-03-31T12:18:02;16.60;98.10
49855;DHT22;35752;52.164;21.244;2023-03-31T12:20:34;16.70;98.50
49855;DHT22;35752;52.164;21.244;2023-03-31T12:23:04;16.60;97.30
49855;DHT22;35752;52.164;21.244;2023-03-31T12:25:48;16.40;97.10
49855;DHT22;35752;52.164;21.244;2023-03-31T12:28:17;16.50;97.90
49855;DHT22;35752;52.164;21.244;2023-03-31T12:30:44;16.60;97.60
49855;DHT22;35752;52.164;21.244;2023-03-31T12:33:39;16.50;96.70
49855;DHT22;35752;52.164;21.244;2023-03-31T12:36:32;16.30;97.20
49855;DHT22;35752;52.164;21.244;2023-03-31T12:39:41;16.30;96.70
49855;DHT22;35752;52.164;21.244;2023-03-31T12:42:31;16.50;96.10
49855;DHT22;35752;52.164;21.244;2023-03-31T12:45:17;16.60;96.30
49855;DHT22;35752;52.164;21.244;2023-03-31T12:51:41;16.30;95.70
49855;DHT22;35752;52.164;21.244;2023-03-31T12:54:08;16.30;95.30
49855;DHT22;35752;52.164;21.244;2023-03-31T12:59:34;16.40;95.20
49855;DHT22;35752;52.164;21.244;2023-03-31T13:04:41;16.30;95.20
49855;DHT22;35752;52.164;21.244;2023-03-31T13:09:57;16.10;95.50
49855;DHT22;35752;52.164;21.244;2023-03-31T13:12:25;15.90;95.50
49855;DHT22;35752;52.164;21.244;2023-03-31T13:14:54;15.90;96.10
49855;DHT22;35752;52.164;21.244;2023-03-31T13:17:53;16.10;96.10
49855;DHT22;35752;52.164;21.244;2023-03-31T13:20:40;16.10;96.50
49855;DHT22;35752;52.164;21.244;2023-03-31T13:25:34;15.90;96.20
49855;DHT22;35752;52.164;21.244;2023-03-31T13:28:15;15.90;96.20
49855;DHT22;35752;52.164;21.244;2023-03-31T13:33:11;16.10;96.20
49855;DHT22;35752;52.164;21.244;2023-03-31T13:35:39;16.10;95.70
49855;DHT22;35752;52.164;21.244;2023-03-31T13:41:17;16.20;94.40
49855;DHT22;35752;52.164;21.244;2023-03-31T13:53:23;15.70;95.00
49855;DHT22;35752;52.164;21.244;2023-03-31T14:07:16;15.40;95.60
49855;DHT22;35752;52.164;21.244;2023-03-31T14:09:44;15.60;95.50
49855;DHT22;35752;52.164;21.244;2023-03-31T14:14:55;15.80;95.50
49855;DHT22;35752;52.164;21.244;2023-03-31T14:17:37;15.90;95.60
49855;DHT22;35752;52.164;21.244;2023-03-31T14:23:14;15.90;95.10
49855;DHT22;35752;52.164;21.244;2023-03-31T14:25:56;15.90;95.30
49855;DHT22;35752;52.164;21.244;2023-03-31T14:31:23;15.80;95.00
49855;DHT22;35752;52.164;21.244;2023-03-31T14:36:35;16.20;95.10
49855;DHT22;35752;52.164;21.244;2023-03-31T14:39:05;16.20;95.30
49855;DHT22;35752;52.164;21.244;2023-03-31T14:41:33;16.10;94.80
49855;DHT22;35752;52.164;21.244;2023-03-31T14:44:05;16.10;94.90
49855;DHT22;35752;52.164;21.244;2023-03-31T14:46:36;16.10;94.80
49855;DHT22;35752;52.164;21.244;2023-03-31T14:49:27;15.90;94.90
49855;DHT22;35752;52.164;21.244;2023-03-31T14:51:54;15.80;95.30
49855;DHT22;35752;52.164;21.244;2023-03-31T14:54:23;15.80;95.40
49855;DHT22;35752;52.164;21.244;2023-03-31T14:56:55;15.70;95.80
49855;DHT22;35752;52.164;21.244;2023-03-31T14:59:26;15.60;95.80
49855;DHT22;35752;52.164;21.244;2023-03-31T15:01:55;15.50;95.80
49855;DHT22;35752;52.164;21.244;2023-03-31T15:04:25;15.40;96.10
49855;DHT22;35752;52.164;21.244;2023-03-31T15:06:52;15.30;97.40
49855;DHT22;35752;52.164;21.244;2023-03-31T15:09:23;15.10;99.90
49855;DHT22;35752;52.164;21.244;2023-03-31T15:11:56;14.70;99.90
49855;DHT22;35752;52.164;21.244;2023-03-31T15:14:28;14.40;99.90
49855;DHT22;35752;52.164;21.244;2023-03-31T15:16:54;14.40;99.90
49855;DHT22;35752;52.164;21.244;2023-03-31T15:19:28;14.30;99.90
49855;DHT22;35752;52.164;21.244;2023-03-31T15:24:26;14.00;99.90
49855;DHT22;35752;52.164;21.244;2023-03-31T15:26:56;13.90;99.90
49855;DHT22;35752;52.164;21.244;2023-03-31T15:29:46;13.80;99.90
49855;DHT22;35752;52.164;21.244;2023-03-31T15:32:28;13.60;99.90
49855;DHT22;35752;52.164;21.244;2023-03-31T15:34:54;13.50;56.50
49855;DHT22;35752;52.164;21.244;2023-03-31T15:37:23;13.20;43.80
49855;DHT22;35752;52.164;21.244;2023-03-31T15:39:51;13.20;17.80
49855;DHT22;35752;52.164;21.244;2023-03-31T15:42:19;13.10;23.00
49855;DHT22;35752;52.164;21.244;2023-03-31T15:44:47;13.10;34.40
49855;DHT22;35752;52.164;21.244;2023-03-31T15:47:23;13.00;86.00
49855;DHT22;35752;52.164;21.244;2023-03-31T15:52:34;12.50;1.00
49855;DHT22;35752;52.164;21.244;2023-03-31T15:54:59;12.30;1.00
49855;DHT22;35752;52.164;21.244;2023-03-31T15:57:34;12.30;1.00
49855;DHT22;35752;52.164;21.244;2023-03-31T16:00:01;12.10;1.00
49855;DHT22;35752;52.164;21.244;2023-03-31T16:02:41;12.00;9.30
49855;DHT22;35752;52.164;21.244;2023-03-31T16:05:23;12.00;5.30
49855;DHT22;35752;52.164;21.244;2023-03-31T16:07:52;12.00;22.40
49855;DHT22;35752;52.164;21.244;2023-03-31T16:10:20;11.90;39.30
49855;DHT22;35752;52.164;21.244;2023-03-31T16:12:51;11.90;33.20
49855;DHT22;35752;52.164;21.244;2023-03-31T16:15:21;12.00;39.50
49855;DHT22;35752;52.164;21.244;2023-03-31T16:18:16;11.90;48.20
49855;DHT22;35752;52.164;21.244;2023-03-31T16:20:43;11.90;42.90
49855;DHT22;35752;52.164;21.244;2023-03-31T16:23:16;11.90;40.30
49855;DHT22;35752;52.164;21.244;2023-03-31T16:25:43;11.80;50.50
49855;DHT22;35752;52.164;21.244;2023-03-31T16:28:14;11.80;47.00
49855;DHT22;35752;52.164;21.244;2023-03-31T16:30:42;11.60;67.20
49855;DHT22;35752;52.164;21.244;2023-03-31T16:33:10;11.50;65.50
49855;DHT22;35752;52.164;21.244;2023-03-31T16:35:38;11.40;71.60
49855;DHT22;35752;52.164;21.244;2023-03-31T16:38:05;11.50;79.10
49855;DHT22;35752;52.164;21.244;2023-03-31T16:40:40;11.50;77.20
49855;DHT22;35752;52.164;21.244;2023-03-31T16:43:16;11.50;77.90
49855;DHT22;35752;52.164;21.244;2023-03-31T16:45:44;11.50;79.90
49855;DHT22;35752;52.164;21.244;2023-03-31T16:48:11;11.50;76.70
49855;DHT22;35752;52.164;21.244;2023-03-31T16:50:37;11.50;74.60
49855;DHT22;35752;52.164;21.244;2023-03-31T16:53:03;11.50;73.60
49855;DHT22;35752;52.164;21.244;2023-03-31T16:55:29;11.50;72.30
49855;DHT22;35752;52.164;21.244;2023-03-31T16:57:57;11.40;72.50
49855;DHT22;35752;52.164;21.244;2023-03-31T17:00:24;11.40;71.00
49855;DHT22;35752;52.164;21.244;2023-03-31T17:02:49;11.40;71.20
49855;DHT22;35752;52.164;21.244;2023-03-31T17:05:15;11.40;75.10
49855;DHT22;35752;52.164;21.244;2023-03-31T17:07:41;11.40;74.90
49855;DHT22;35752;52.164;21.244;2023-03-31T17:10:07;11.40;76.70
49855;DHT22;35752;52.164;21.244;2023-03-31T17:12:33;11.30;79.00
49855;DHT22;35752;52.164;21.244;2023-03-31T17:14:59;11.30;79.10
49855;DHT22;35752;52.164;21.244;2023-03-31T17:17:24;11.30;81.40
49855;DHT22;35752;52.164;21.244;2023-03-31T17:19:50;11.30;83.60
49855;DHT22;35752;52.164;21.244;2023-03-31T17:22:17;11.30;86.20
49855;DHT22;35752;52.164;21.244;2023-03-31T17:24:42;11.30;84.80
49855;DHT22;35752;52.164;21.244;2023-03-31T17:27:08;11.30;84.20
49855;DHT22;35752;52.164;21.244;2023-03-31T17:29:34;11.30;83.00
49855;DHT22;35752;52.164;21.244;2023-03-31T17:31:59;11.30;86.50
49855;DHT22;35752;52.164;21.244;2023-03-31T17:34:25;11.30;82.80
49855;DHT22;35752;52.164;21.244;2023-03-31T17:36:51;11.20;86.00
49855;DHT22;35752;52.164;21.244;2023-03-31T17:39:19;11.30;87.40
49855;DHT22;35752;52.164;21.244;2023-03-31T17:41:44;11.30;85.90
49855;DHT22;35752;52.164;21.244;2023-03-31T17:44:10;11.20;89.80
49855;DHT22;35752;52.164;21.244;2023-03-31T17:46:36;11.20;90.10
49855;DHT22;35752;52.164;21.244;2023-03-31T17:49:02;11.20;91.00
49855;DHT22;35752;52.164;21.244;2023-03-31T17:51:28;11.10;91.10
49855;DHT22;35752;52.164;21.244;2023-03-31T17:53:56;11.10;91.20
49855;DHT22;35752;52.164;21.244;2023-03-31T17:56:21;11.10;92.50
49855;DHT22;35752;52.164;21.244;2023-03-31T17:58:48;10.90;93.40
49855;DHT22;35752;52.164;21.244;2023-03-31T18:01:14;10.70;98.90
49855;DHT22;35752;52.164;21.244;2023-03-31T18:03:40;10.70;99.90
49855;DHT22;35752;52.164;21.244;2023-03-31T18:06:08;10.60;99.90
49855;DHT22;35752;52.164;21.244;2023-03-31T18:08:36;10.60;99.90
49855;DHT22;35752;52.164;21.244;2023-03-31T18:11:03;10.60;99.90
49855;DHT22;35752;52.164;21.244;2023-03-31T18:13:30;10.60;99.90
49855;DHT22;35752;52.164;21.244;2023-03-31T18:15:56;10.70;99.90